Time;durP1;ratioP1;P1;durP2;ratioP2;P2;SDS_P1;SDS_P2;PMS_P1;PMS_P2;Temp;Humidity;BMP_temperature;BMP_pressure;BME280_temperature;BME280_humidity;BME280_pressure;Samples;Min_cycle;Max_cycle;Signal;HPM_P1;HPM_P2
2021/11/19 00:02:43;;;;;;;0.00;0.00;;;;;;;6.08;64.47;99410.43;103947;1355;137777;-88
2021/11/19 00:05:35;;;;;;;0.00;0.00;;;;;;;6.06;64.49;99416.09;103942;1355;138092;-88
2021/11/19 00:08:50;;;;;;;0.00;0.00;;;;;;;6.05;64.51;99411.25;103866;1355;137406;-88
2021/11/19 00:12:03;;;;;;;0.00;0.00;;;;;;;6.04;64.51;99412.70;103937;1354;137405;-88
2021/11/19 00:15:28;;;;;;;0.00;0.00;;;;;;;6.01;64.66;99411.39;103938;1354;138456;-88
2021/11/19 00:18:54;;;;;;;0.00;0.00;;;;;;;5.98;65.03;99405.15;103938;1354;137165;-89
2021/11/19 00:22:19;;;;;;;0.10;0.10;;;;;;;5.95;65.05;99392.52;104032;1355;23133;-88
2021/11/19 00:25:45;;;;;;;0.00;0.00;;;;;;;5.94;64.75;99388.77;103825;1354;137562;-89
2021/11/19 00:29:11;;;;;;;0.00;0.00;;;;;;;5.99;64.68;99381.70;103922;1354;138625;-89
2021/11/19 00:32:37;;;;;;;0.00;0.00;;;;;;;6.04;64.92;99372.87;103824;1354;138565;-88
2021/11/19 00:36:03;;;;;;;0.00;0.00;;;;;;;6.13;64.88;99381.12;103927;1355;137813;-88
2021/11/19 00:39:29;;;;;;;0.00;0.00;;;;;;;6.23;64.90;99380.19;103803;1355;137684;-89
2021/11/19 00:42:55;;;;;;;0.00;0.00;;;;;;;6.28;64.59;99377.39;103929;1354;137769;-89
2021/11/19 00:46:21;;;;;;;0.00;0.00;;;;;;;6.30;64.23;99378.27;103934;1354;138119;-89
2021/11/19 00:49:46;;;;;;;0.00;0.00;;;;;;;6.33;64.12;99376.31;103976;1355;137639;-89
2021/11/19 00:52:40;;;;;;;0.00;0.00;;;;;;;6.34;63.91;99367.81;103957;1354;137663;-88
2021/11/19 00:55:27;;;;;;;0.00;0.00;;;;;;;6.31;64.05;99360.67;103941;1355;137564;-88
2021/11/19 00:58:17;;;;;;;0.00;0.00;;;;;;;6.27;63.63;99356.73;103846;1355;137922;-89
2021/11/19 01:01:46;;;;;;;0.00;0.00;;;;;;;6.25;63.77;99363.39;103405;1355;137882;-89
2021/11/19 01:05:12;;;;;;;0.00;0.00;;;;;;;6.22;63.82;99366.86;103860;1355;137526;-88
2021/11/19 01:08:38;;;;;;;0.00;0.00;;;;;;;6.17;64.07;99362.23;103908;1354;137309;-89
2021/11/19 01:12:04;;;;;;;0.00;0.00;;;;;;;6.09;63.90;99363.87;103921;1354;137366;-89
2021/11/19 01:15:39;;;;;;;0.00;0.00;;;;;;;6.05;64.04;99359.56;103826;1349;137656;-89
2021/11/19 01:19:05;;;;;;;0.00;0.00;;;;;;;6.03;64.00;99355.05;103839;1355;137602;-89
2021/11/19 01:22:31;;;;;;;0.00;0.00;;;;;;;6.01;63.94;99356.10;103814;1355;137747;-89
2021/11/19 01:25:57;;;;;;;0.10;0.10;;;;;;;6.00;64.01;99363.63;103904;1355;136451;-89
2021/11/19 01:29:26;;;;;;;0.00;0.00;;;;;;;5.99;63.82;99359.67;103790;1355;137338;-89
2021/11/19 01:32:35;;;;;;;0.00;0.00;;;;;;;5.98;63.87;99360.14;103926;1355;137264;-88
2021/11/19 01:35:45;;;;;;;0.00;0.00;;;;;;;5.98;63.85;99364.23;103831;1355;137562;-88
2021/11/19 01:38:54;;;;;;;0.10;0.10;;;;;;;6.01;63.78;99361.40;103935;1355;138376;-88
2021/11/19 01:42:19;;;;;;;0.00;0.00;;;;;;;6.10;63.95;99361.04;103814;1355;138209;-88
2021/11/19 01:45:37;;;;;;;0.10;0.10;;;;;;;6.20;64.10;99346.52;103940;1354;138016;-88
2021/11/19 01:49:03;;;;;;;0.00;0.00;;;;;;;6.32;63.70;99347.63;104066;1354;22323;-88
2021/11/19 01:52:37;;;;;;;0.00;0.00;;;;;;;6.40;63.14;99336.98;103969;1354;137769;-88
2021/11/19 01:55:29;;;;;;;0.00;0.00;;;;;;;6.45;62.76;99338.39;103968;1354;137692;-88
2021/11/19 01:58:37;;;;;;;0.10;0.10;;;;;;;6.49;62.65;99333.77;103950;1354;137735;-88
2021/11/19 02:02:02;;;;;;;0.10;0.10;;;;;;;6.53;62.37;99326.25;103948;1354;137675;-88
2021/11/19 02:05:28;;;;;;;0.00;0.00;;;;;;;6.55;62.27;99320.42;103836;1354;137544;-89
2021/11/19 02:08:37;;;;;;;0.10;0.10;;;;;;;6.55;62.00;99314.33;103981;1355;137674;-88
2021/11/19 02:11:32;;;;;;;0.00;0.00;;;;;;;6.57;61.84;99309.14;103871;1354;138039;-89
2021/11/19 02:17:58;;;;;;;0.00;0.00;;;;;;;6.53;61.98;99293.88;103749;1351;137983;-80
2021/11/19 02:21:17;;;;;;;0.00;0.00;;;;;;;6.51;62.15;99289.46;103765;1357;137306;-79
2021/11/19 02:28:17;;;;;;;0.00;0.00;;;;;;;6.49;62.30;99276.25;103836;1356;136096;-80
2021/11/19 02:31:53;;;;;;;0.00;0.00;;;;;;;6.51;62.25;99276.79;99735;1357;5636355;-80
2021/11/19 02:35:21;;;;;;;0.00;0.00;;;;;;;6.52;62.38;99277.92;103910;1357;137649;-80
2021/11/19 02:38:38;;;;;;;0.00;0.00;;;;;;;6.50;62.42;99266.52;103871;1357;137401;-79
2021/11/19 02:42:07;;;;;;;0.00;0.00;;;;;;;6.49;62.63;99262.87;103887;1357;137369;-80
2021/11/19 02:45:33;;;;;;;0.00;0.00;;;;;;;6.46;62.87;99248.84;103902;1357;137370;-79
2021/11/19 02:48:59;;;;;;;0.00;0.00;;;;;;;6.43;63.21;99260.38;103795;1357;137514;-80
2021/11/19 02:52:24;;;;;;;0.00;0.00;;;;;;;6.41;63.18;99256.48;103150;1363;137257;-80
2021/11/19 02:55:53;;;;;;;0.00;0.00;;;;;;;6.46;63.55;99264.83;103774;1356;138657;-79
2021/11/19 02:59:19;;;;;;;0.00;0.00;;;;;;;6.53;63.66;99271.14;103734;1357;138419;-79
2021/11/19 03:06:21;;;;;;;0.00;0.00;;;;;;;6.69;64.16;99278.65;103890;1357;137495;-79
2021/11/19 03:09:47;;;;;;;0.10;0.10;;;;;;;6.73;63.97;99281.13;103690;1355;137553;-79
2021/11/19 03:13:16;;;;;;;0.10;0.10;;;;;;;6.76;63.65;99284.33;103255;1357;137838;-79
2021/11/19 03:16:46;;;;;;;0.00;0.00;;;;;;;6.73;63.88;99293.11;103871;1355;136112;-79
2021/11/19 03:20:12;;;;;;;0.00;0.00;;;;;;;6.71;63.90;99291.44;103777;1357;137892;-80
2021/11/19 03:27:04;;;;;;;0.00;0.00;;;;;;;6.61;64.24;99286.10;103753;1357;137508;-79
2021/11/19 03:30:32;;;;;;;0.00;0.00;;;;;;;6.54;64.45;99287.94;103767;1357;137396;-79
2021/11/19 03:41:04;;;;;;;0.00;0.00;;;;;;;6.44;64.72;99285.15;103622;1356;137725;-80
2021/11/19 03:44:34;;;;;;;0.00;0.00;;;;;;;6.42;64.96;99279.70;103787;1357;137580;-81
2021/11/19 04:02:20;;;;;;;0.00;0.00;;;;;;;6.48;65.68;99254.41;103821;1356;138405;-80
2021/11/19 04:05:47;;;;;;;0.00;0.00;;;;;;;6.49;65.94;99247.63;103262;1365;137921;-81
2021/11/19 04:09:19;;;;;;;0.00;0.00;;;;;;;6.44;65.92;99250.01;103186;1363;137820;-80
2021/11/19 04:13:09;;;;;;;0.10;0.10;;;;;;;6.37;65.98;99247.02;103122;1357;137771;-80
2021/11/19 04:16:23;;;;;;;0.00;0.00;;;;;;;6.30;66.06;99253.46;103759;1357;137935;-81
2021/11/19 04:19:49;;;;;;;0.00;0.00;;;;;;;6.19;66.30;99253.26;103874;1356;137167;-80
2021/11/19 04:23:16;;;;;;;0.00;0.00;;;;;;;6.10;66.30;99239.38;103774;1357;137478;-80
2021/11/19 04:37:10;;;;;;;0.00;0.00;;;;;;;5.93;67.66;99227.79;103612;1357;137970;-80
2021/11/19 04:40:36;;;;;;;0.00;0.00;;;;;;;5.94;67.71;99243.95;103844;1355;137899;-81
2021/11/19 04:47:31;;;;;;;0.00;0.00;;;;;;;5.90;67.70;99240.27;103779;1355;137295;-80
2021/11/19 04:51:06;;;;;;;0.00;0.00;;;;;;;5.88;67.84;99238.30;103838;1357;137299;-80
2021/11/19 05:04:56;;;;;;;0.00;0.00;;;;;;;5.72;68.20;99235.67;103712;1357;137657;-79
2021/11/19 05:11:52;;;;;;;0.00;0.00;;;;;;;5.71;68.52;99224.99;103793;1356;138675;-79
2021/11/19 05:15:18;;;;;;;0.00;0.00;;;;;;;5.76;68.36;99227.33;103880;1357;138283;-79
2021/11/19 05:18:46;;;;;;;0.00;0.00;;;;;;;5.85;68.58;99225.41;103731;1356;138118;-79
2021/11/19 05:22:11;;;;;;;0.00;0.00;;;;;;;5.87;68.49;99228.48;103882;1356;137413;-79
2021/11/19 05:25:39;;;;;;;0.00;0.00;;;;;;;5.90;68.08;99224.39;103993;1357;23208;-80
2021/11/19 05:39:37;;;;;;;0.00;0.00;;;;;;;5.91;68.03;99220.87;103700;1357;137408;-80
2021/11/19 05:43:02;;;;;;;0.00;0.00;;;;;;;5.92;67.73;99227.50;103792;1356;137457;-80
2021/11/19 05:46:32;;;;;;;0.00;0.00;;;;;;;5.90;67.89;99226.73;103887;1357;137551;-80
2021/11/19 05:53:25;;;;;;;0.10;0.10;;;;;;;5.88;67.78;99210.56;103782;1357;137912;-80
2021/11/19 05:56:51;;;;;;;0.00;0.00;;;;;;;5.87;67.82;99203.94;103887;1356;137479;-80
2021/11/19 06:00:27;;;;;;;;;;;;;;;;;;;;;
2021/11/19 06:03:49;;;;;;;0.10;0.10;;;;;;;5.85;67.87;99207.02;103788;1355;138172;-81
2021/11/19 06:07:17;;;;;;;0.00;0.00;;;;;;;5.92;68.31;99213.08;103686;1357;138567;-79
2021/11/19 06:10:49;;;;;;;0.00;0.00;;;;;;;6.01;68.20;99209.61;103863;1357;138203;-80
2021/11/19 06:17:50;;;;;;;0.00;0.00;;;;;;;6.10;67.77;99207.37;103866;1357;137519;-79
2021/11/19 06:21:22;;;;;;;0.00;0.00;;;;;;;6.09;67.70;99197.63;103689;1357;137303;-80
2021/11/19 06:28:15;;;;;;;0.00;0.00;;;;;;;6.10;67.80;99197.00;103776;1356;137167;-80
2021/11/19 06:31:41;;;;;;;0.00;0.00;;;;;;;6.09;67.57;99199.13;103792;1357;138076;-81
2021/11/19 06:35:22;;;;;;;0.00;0.00;;;;;;;6.09;67.76;99192.70;103893;1356;137626;-80
2021/11/19 06:38:35;;;;;;;0.00;0.00;;;;;;;6.08;67.98;99192.05;103108;1361;137523;-80
2021/11/19 06:42:03;;;;;;;0.00;0.00;;;;;;;6.08;67.76;99195.58;103253;1362;137611;-80
2021/11/19 06:45:30;;;;;;;0.00;0.00;;;;;;;6.10;67.93;99198.33;103231;1364;137390;-81
2021/11/19 06:48:58;;;;;;;0.10;0.10;;;;;;;6.11;68.08;99185.71;103028;1365;137729;-80
2021/11/19 06:52:24;;;;;;;0.00;0.00;;;;;;;6.13;67.95;99187.96;103314;1357;137201;-79
2021/11/19 06:55:52;;;;;;;0.00;0.00;;;;;;;6.21;67.98;99192.17;103592;1352;138669;-79
2021/11/19 06:59:20;;;;;;;0.00;0.00;;;;;;;6.34;67.97;99187.85;103814;1357;138588;-79
2021/11/19 07:06:15;;;;;;;0.00;0.00;;;;;;;6.57;67.62;99193.77;103834;1357;137461;-80
2021/11/19 07:09:45;;;;;;;0.00;0.00;;;;;;;6.67;67.64;99188.40;103756;1357;137313;-80
2021/11/19 07:13:11;;;;;;;0.00;0.00;;;;;;;6.71;67.65;99193.92;103608;1350;137303;-80
2021/11/19 07:16:37;;;;;;;0.00;0.00;;;;;;;6.71;67.53;99196.39;103760;1350;23208;-79
2021/11/19 07:20:04;;;;;;;0.10;0.10;;;;;;;6.68;67.81;99199.05;103727;1350;137292;-80
2021/11/19 07:27:04;;;;;;;0.10;0.10;;;;;;;6.69;68.47;99197.55;103612;1357;137329;-79
2021/11/19 07:30:39;;;;;;;0.10;0.10;;;;;;;6.71;68.12;99191.84;103910;1357;138260;-79
2021/11/19 07:34:06;;;;;;;0.00;0.00;;;;;;;6.78;68.47;99189.50;103630;1357;138299;-80
2021/11/19 07:37:41;;;;;;;0.10;0.10;;;;;;;6.90;68.48;99183.69;103886;1357;138467;-79
2021/11/19 07:41:08;;;;;;;0.00;0.00;;;;;;;7.02;68.12;99182.00;103848;1356;138149;-80
2021/11/19 07:44:34;;;;;;;0.00;0.00;;;;;;;7.13;67.82;99176.27;103796;1357;138230;-80
2021/11/19 07:48:01;;;;;;;0.10;0.10;;;;;;;7.19;67.87;99176.02;103819;1356;137824;-79
2021/11/19 07:51:28;;;;;;;0.00;0.00;;;;;;;7.21;67.95;99173.82;103806;1356;137607;-80
2021/11/19 07:54:47;;;;;;;0.00;0.00;;;;;;;7.24;67.69;99179.50;103826;1357;137925;-80
2021/11/19 07:58:14;;;;;;;0.10;0.10;;;;;;;7.29;67.73;99183.84;103781;1351;137386;-81
2021/11/19 08:01:57;;;;;;;0.10;0.10;;;;;;;7.35;67.67;99192.48;103874;1352;137250;-80
2021/11/19 08:05:31;;;;;;;;;;;;;;;;;;;;;
2021/11/19 08:08:49;;;;;;;0.10;0.10;;;;;;;7.46;67.63;99192.62;103832;1350;137545;-79
2021/11/19 08:12:13;;;;;;;0.10;0.10;;;;;;;7.57;67.04;99192.67;103827;1357;138002;-80
2021/11/19 08:19:13;;;;;;;0.10;0.10;;;;;;;7.80;66.59;99192.86;103917;1348;137548;-79
2021/11/19 08:29:33;;;;;;;0.10;0.10;;;;;;;7.98;66.12;99195.47;103837;1355;137779;-79
2021/11/19 08:32:58;;;;;;;0.10;0.10;;;;;;;8.02;65.78;99197.28;103472;1356;136399;-82
2021/11/19 08:36:24;;;;;;;0.10;0.10;;;;;;;8.07;65.60;99204.13;103819;1357;137277;-80
2021/11/19 08:39:50;;;;;;;0.10;0.10;;;;;;;8.17;65.69;99213.29;103916;1355;138312;-79
2021/11/19 08:43:17;;;;;;;0.00;0.00;;;;;;;8.31;65.62;99218.23;103815;1357;138052;-80
2021/11/19 08:46:46;;;;;;;0.00;0.00;;;;;;;8.41;65.44;99212.64;103837;1352;137286;-80
2021/11/19 08:50:19;;;;;;;0.00;0.00;;;;;;;8.51;65.08;99209.33;103943;1356;137707;-80
2021/11/19 08:57:11;;;;;;;0.10;0.10;;;;;;;8.62;64.79;99206.87;103799;1355;137640;-80
2021/11/19 09:00:37;;;;;;;0.00;0.00;;;;;;;8.67;64.62;99205.44;103807;1357;137965;-80
2021/11/19 09:04:03;;;;;;;0.10;0.10;;;;;;;8.71;64.19;99196.24;103934;1347;137457;-79
2021/11/19 09:07:38;;;;;;;0.10;0.10;;;;;;;8.71;64.28;99185.28;104032;1352;22443;-80
2021/11/19 09:11:04;;;;;;;0.10;0.10;;;;;;;8.74;64.32;99188.77;103619;1355;137373;-80
2021/11/19 09:28:35;;;;;;;0.10;0.10;;;;;;;9.22;63.32;99166.32;103813;1355;138405;-79
2021/11/19 09:32:08;;;;;;;0.00;0.00;;;;;;;9.29;62.98;99166.22;103923;1355;138016;-80
2021/11/19 09:35:35;;;;;;;0.10;0.10;;;;;;;9.32;62.98;99167.91;103182;1357;138107;-80
2021/11/19 09:46:14;;;;;;;0.10;0.10;;;;;;;9.55;62.34;99159.00;103961;1357;138168;-81
2021/11/19 09:56:59;;;;;;;0.00;0.00;;;;;;;9.82;62.11;99149.76;103920;1357;138081;-80
2021/11/19 10:00:30;;;;;;;0.00;0.00;;;;;;;9.93;61.87;99141.85;103820;1356;137814;-82
2021/11/19 10:03:57;;;;;;;0.10;0.10;;;;;;;10.05;61.66;99141.02;103765;1355;137851;-82
2021/11/19 10:14:45;;;;;;;0.10;0.10;;;;;;;10.11;61.39;99114.16;103934;1347;137624;-82
2021/11/19 10:18:10;;;;;;;0.10;0.10;;;;;;;10.10;61.13;99109.00;103935;1355;137849;-80
2021/11/19 10:28:58;;;;;;;0.10;0.10;;;;;;;10.36;60.78;99097.45;103818;1355;151692;-79
2021/11/19 10:32:25;;;;;;;0.20;0.20;;;;;;;10.40;60.73;99097.87;99740;1355;5700620;-80
2021/11/19 10:36:11;;;;;;;0.20;0.20;;;;;;;10.41;60.60;99106.15;103795;1355;137693;-80
2021/11/19 10:39:40;;;;;;;0.10;0.10;;;;;;;10.44;60.83;99109.50;103827;1355;137646;-80
2021/11/19 10:46:55;;;;;;;0.10;0.10;;;;;;;10.29;60.81;99114.52;103925;1357;137667;-79
2021/11/19 11:04:34;;;;;;;0.20;0.20;;;;;;;10.16;61.55;99107.30;103806;1357;137680;-80
2021/11/19 11:11:33;;;;;;;;;;;;;;;;;;;;;
2021/11/19 11:29:17;;;;;;;0.10;0.10;;;;;;;9.95;62.03;99081.68;103709;1355;137820;-80
2021/11/19 11:32:55;;;;;;;0.10;0.10;;;;;;;9.93;62.07;99076.38;103817;1357;137840;-80
2021/11/19 11:40:14;;;;;;;0.10;0.10;;;;;;;10.06;62.66;99075.92;103780;1351;138647;-80
2021/11/19 11:47:18;;;;;;;0.20;0.20;;;;;;;10.19;62.21;99066.73;103735;1357;138292;-80
2021/11/19 11:50:41;;;;;;;0.10;0.10;;;;;;;10.19;62.08;99073.35;103761;1357;137675;-80
2021/11/19 11:54:25;;;;;;;0.10;0.10;;;;;;;10.16;62.02;99061.51;103760;1357;137624;-80
2021/11/19 11:58:03;;;;;;;0.20;0.20;;;;;;;10.16;62.13;99066.92;103763;1357;138484;-80
2021/11/19 12:05:20;;;;;;;0.10;0.10;;;;;;;10.23;61.67;99056.73;103356;1362;137931;-79
2021/11/19 12:08:54;;;;;;;0.10;0.10;;;;;;;10.22;61.68;99058.41;103471;1361;137788;-80
2021/11/19 12:12:24;;;;;;;0.20;0.20;;;;;;;10.25;61.93;99059.08;103407;1357;137870;-81
2021/11/19 12:16:07;;;;;;;0.10;0.10;;;;;;;10.24;61.95;99057.95;103868;1357;137662;-80
2021/11/19 12:19:39;;;;;;;0.20;0.20;;;;;;;10.22;62.01;99052.27;103835;1357;137922;-80
2021/11/19 12:23:18;;;;;;;0.10;0.10;;;;;;;10.24;62.06;99046.16;103817;1356;138243;-81
2021/11/19 12:26:52;;;;;;;0.10;0.10;;;;;;;10.32;62.27;99038.02;103810;1348;138017;-79
2021/11/19 12:30:16;;;;;;;;;;;;;;;;;;;;;
2021/11/19 12:33:49;;;;;;;0.10;0.10;;;;;;;10.47;61.77;99033.16;103899;1355;137609;-79
2021/11/19 12:37:13;;;;;;;;;;;;;;;;;;;;;
2021/11/19 12:40:44;;;;;;;0.20;0.20;;;;;;;10.44;61.63;99030.51;103878;1355;137678;-79
2021/11/19 12:47:57;;;;;;;0.10;0.10;;;;;;;10.42;61.54;99019.77;103815;1355;137940;-78
2021/11/19 12:51:34;;;;;;;0.20;0.20;;;;;;;10.43;61.47;99017.67;103927;1355;137786;-80
2021/11/19 13:02:21;;;;;;;0.20;0.20;;;;;;;10.69;61.29;99029.64;103829;1355;138008;-79
2021/11/19 13:09:40;;;;;;;0.10;0.10;;;;;;;10.71;61.11;99035.38;103852;1355;138011;-80
2021/11/19 13:13:07;;;;;;;0.00;0.00;;;;;;;10.72;61.19;99039.13;103841;1355;137889;-81
2021/11/19 13:16:32;;;;;;;0.10;0.10;;;;;;;10.70;61.26;99037.61;103940;1355;138667;-80
2021/11/19 13:20:20;;;;;;;;;;;;;;;;;;;;;
2021/11/19 13:27:23;;;;;;;0.10;0.10;;;;;;;10.89;61.28;99043.40;103575;1352;137684;-80
2021/11/19 13:31:08;;;;;;;0.20;0.20;;;;;;;10.92;61.27;99031.23;103759;1355;137869;-80
2021/11/19 13:34:46;;;;;;;0.20;0.20;;;;;;;10.96;61.09;99038.19;103520;1355;137757;-81
2021/11/19 13:38:12;;;;;;;0.20;0.20;;;;;;;11.01;61.13;99035.47;103789;1355;137859;-82
2021/11/19 13:42:05;;;;;;;;;;;;;;;;;;;;;
2021/11/19 13:45:42;;;;;;;0.20;0.20;;;;;;;11.06;60.87;99030.44;103911;1355;138141;-80
2021/11/19 13:49:12;;;;;;;0.20;0.20;;;;;;;11.15;60.70;99026.94;103702;1355;138123;-82
2021/11/19 13:52:38;;;;;;;0.10;0.10;;;;;;;11.33;60.58;99025.98;103815;1355;137949;-82
2021/11/19 13:59:53;;;;;;;0.20;0.20;;;;;;;11.82;59.82;99037.55;103477;1355;137665;-81
2021/11/19 14:06:59;;;;;;;0.20;0.20;;;;;;;11.89;59.21;99053.45;103770;1348;138020;-80
2021/11/19 14:10:29;;;;;;;0.10;0.10;;;;;;;11.75;59.52;99056.13;103939;1348;137713;-80
2021/11/19 14:13:56;;;;;;;0.30;0.30;;;;;;;11.60;59.21;99056.16;103816;1351;138210;-81
2021/11/19 14:17:32;;;;;;;0.10;0.10;;;;;;;11.40;59.78;99056.67;103969;1355;138187;-80
2021/11/19 14:28:18;;;;;;;0.20;0.20;;;;;;;11.08;60.87;99059.63;103401;1358;138529;-80
2021/11/19 14:31:47;;;;;;;0.10;0.10;;;;;;;10.99;60.95;99065.75;103698;1358;162032;-80
2021/11/19 14:38:43;;;;;;;0.10;0.10;;;;;;;10.85;61.46;99078.73;103716;1357;137775;-81
2021/11/19 14:42:24;;;;;;;0.10;0.10;;;;;;;10.77;61.47;99078.49;103798;1358;138075;-81
2021/11/19 14:46:04;;;;;;;0.20;0.20;;;;;;;10.77;62.11;99083.45;103615;1358;138819;-80
2021/11/19 14:58:35;;;;;;;;;;;;;;;;;;;;;
2021/11/19 15:06:03;;;;;;;0.10;0.10;;;;;;;10.60;62.43;99076.48;103870;1357;137713;-83
2021/11/19 15:45:19;;;;;;;0.10;0.10;;;;;;;10.40;63.65;99063.89;103947;1349;137691;-82
2021/11/19 15:55:40;;;;;;;0.10;0.10;;;;;;;10.38;63.89;99066.39;103891;1357;153064;-83
2021/11/19 17:10:36;;;;;;;0.20;0.20;;;;;;;10.25;65.77;99041.42;104009;1354;23575;-80
2021/11/19 17:14:03;;;;;;;0.10;0.10;;;;;;;10.26;65.66;99048.59;103932;1354;137626;-81
2021/11/19 17:17:29;;;;;;;0.10;0.10;;;;;;;10.25;65.76;99047.20;103946;1352;137904;-83
2021/11/19 17:51:59;;;;;;;0.10;0.10;;;;;;;10.27;65.63;99020.52;103940;1346;138481;-82
2021/11/19 18:53:19;;;;;;;0.10;0.10;;;;;;;10.18;65.80;99041.39;103921;1349;138530;-81
2021/11/19 18:59:32;;;;;;;0.20;0.20;;;;;;;10.17;65.58;99041.20;103931;1354;137846;-82
2021/11/19 19:08:49;;;;;;;0.10;0.10;;;;;;;10.13;66.12;99027.15;103833;1355;138696;-84
2021/11/19 19:30:12;;;;;;;0.10;0.10;;;;;;;10.09;66.19;99024.38;103972;1345;138663;-81
2021/11/19 19:33:44;;;;;;;0.10;0.10;;;;;;;10.13;66.42;99029.63;103838;1355;138365;-81
2021/11/19 20:50:31;;;;;;;0.10;0.10;;;;;;;10.25;66.33;99018.10;103853;1345;139632;-82
2021/11/19 21:23:57;;;;;;;0.10;0.10;;;;;;;10.19;66.75;99009.89;103898;1345;137727;-82
2021/11/19 21:59:56;;;;;;;0.10;0.10;;;;;;;10.31;66.78;99018.33;103977;1349;137804;-83
2021/11/19 22:52:26;;;;;;;;;;;;;;;;;;;;;
